Time;durP1;ratioP1;P1;durP2;ratioP2;P2;SDS_P1;SDS_P2;PMS_P1;PMS_P2;Temp;Humidity;BMP_temperature;BMP_pressure;BME280_temperature;BME280_humidity;BME280_pressure;Samples;Min_cycle;Max_cycle;Signal;HPM_P1;HPM_P2
2021/12/06 00:00:08;;;;;;;;;;;1.60;99.90;;;;;;5087855;28;19951;-85
2021/12/06 00:02:34;;;;;;;;;;;1.60;99.90;;;;;;5087453;28;19924;-84
2021/12/06 00:05:01;;;;;;;;;;;1.70;99.90;;;;;;5086209;28;19925;-85
2021/12/06 00:07:27;;;;;;;;;;;0.50;99.90;;;;;;5086144;28;20307;-86
2021/12/06 00:09:55;;;;;;;;;;;1.60;99.90;;;;;;5084658;28;20291;-85
2021/12/06 00:12:22;;;;;;;;;;;0.70;99.90;;;;;;5085158;28;19986;-85
2021/12/06 00:14:48;;;;;;;;;;;1.60;99.90;;;;;;5085841;28;20020;-84
2021/12/06 00:17:16;;;;;;;;;;;1.50;99.90;;;;;;5086415;28;19944;-84
2021/12/06 00:19:43;;;;;;;;;;;1.50;99.90;;;;;;5086051;28;20015;-84
2021/12/06 00:22:11;;;;;;;;;;;1.50;99.90;;;;;;5085287;28;19935;-85
2021/12/06 00:24:37;;;;;;;;;;;1.50;99.90;;;;;;5084421;28;19924;-85
2021/12/06 00:27:05;;;;;;;;;;;1.60;99.90;;;;;;5084937;28;19932;-85
2021/12/06 00:29:32;;;;;;;;;;;1.70;99.90;;;;;;5083963;28;19925;-85
2021/12/06 00:31:58;;;;;;;;;;;1.60;99.90;;;;;;5084388;28;20324;-84
2021/12/06 00:34:30;;;;;;;;;;;1.60;99.90;;;;;;5086666;28;19928;-84
2021/12/06 00:37:06;;;;;;;;;;;1.50;99.90;;;;;;5093684;28;19932;-85
2021/12/06 00:39:33;;;;;;;;;;;1.40;99.90;;;;;;5083823;28;19924;-84
2021/12/06 00:42:00;;;;;;;;;;;1.40;99.90;;;;;;5084101;28;19929;-84
2021/12/06 00:44:28;;;;;;;;;;;1.60;99.90;;;;;;5084204;28;20276;-84
2021/12/06 00:46:54;;;;;;;;;;;1.70;99.90;;;;;;5099225;22;19936;-85
2021/12/06 00:49:21;;;;;;;;;;;1.50;99.90;;;;;;5085987;28;19924;-85
2021/12/06 00:51:47;;;;;;;;;;;1.50;99.90;;;;;;5087082;28;19925;-84
2021/12/06 00:54:15;;;;;;;;;;;1.50;99.90;;;;;;5087431;28;19931;-84
2021/12/06 00:56:42;;;;;;;;;;;1.50;99.90;;;;;;5087015;28;20382;-85
2021/12/06 00:59:08;;;;;;;;;;;1.50;99.90;;;;;;5087868;28;19925;-84
2021/12/06 01:01:36;;;;;;;;;;;1.80;99.90;;;;;;5087535;28;19995;-84
2021/12/06 01:04:03;;;;;;;;;;;0.50;99.90;;;;;;5088224;28;20032;-85
2021/12/06 01:06:31;;;;;;;;;;;1.70;99.90;;;;;;5088180;28;19925;-85
2021/12/06 01:08:57;;;;;;;;;;;1.20;99.90;;;;;;5087567;28;20426;-84
2021/12/06 01:11:24;;;;;;;;;;;1.30;99.90;;;;;;5089355;28;19925;-83
2021/12/06 01:13:50;;;;;;;;;;;0.50;99.90;;;;;;5088417;28;19924;-85
2021/12/06 01:16:17;;;;;;;;;;;1.50;99.90;;;;;;5087284;28;19974;-84
2021/12/06 01:18:45;;;;;;;;;;;1.40;99.90;;;;;;5085833;28;19932;-84
2021/12/06 01:21:17;;;;;;;;;;;1.20;99.90;;;;;;5084977;28;20337;-84
2021/12/06 01:23:52;;;;;;;;;;;1.30;99.90;;;;;;5087167;28;19980;-84
2021/12/06 01:26:37;;;;;;;;;;;1.50;99.90;;;;;;5086866;28;19925;-83
2021/12/06 01:29:16;;;;;;;;;;;1.80;99.90;;;;;;5085346;28;19925;-85
2021/12/06 01:31:50;;;;;;;;;;;1.40;99.90;;;;;;5085593;28;19924;-84
2021/12/06 01:39:48;;;;;;;;;;;1.40;99.90;;;;;;5086284;28;20397;-84
2021/12/06 01:42:15;;;;;;;;;;;1.00;99.90;;;;;;5085540;28;19931;-84
2021/12/06 01:44:42;;;;;;;;;;;0.70;99.90;;;;;;5088799;28;19978;-84
2021/12/06 01:47:10;;;;;;;;;;;1.30;99.90;;;;;;5088936;28;19974;-84
2021/12/06 01:49:39;;;;;;;;;;;1.60;99.90;;;;;;5087929;28;19925;-85
2021/12/06 01:52:08;;;;;;;;;;;1.50;99.90;;;;;;5088064;28;19940;-84
2021/12/06 01:54:34;;;;;;;;;;;1.30;99.90;;;;;;5088799;28;19925;-85
2021/12/06 01:57:01;;;;;;;;;;;1.80;99.90;;;;;;5088587;28;19931;-84
2021/12/06 01:59:28;;;;;;;;;;;1.40;99.90;;;;;;5096093;28;19928;-84
2021/12/06 02:01:55;;;;;;;;;;;1.30;99.90;;;;;;5097861;28;19913;-84
2021/12/06 02:04:21;;;;;;;;;;;1.30;99.90;;;;;;5093995;28;19924;-85
2021/12/06 02:06:49;;;;;;;;;;;1.40;99.90;;;;;;5090243;28;19925;-85
2021/12/06 02:09:17;;;;;;;;;;;1.20;99.90;;;;;;5096448;28;19928;-84
2021/12/06 02:11:44;;;;;;;;;;;1.30;99.90;;;;;;5093153;28;19931;-83
2021/12/06 02:14:24;;;;;;;;;;;1.00;99.90;;;;;;5092561;28;19950;-84
2021/12/06 02:17:04;;;;;;;;;;;1.00;99.90;;;;;;5087693;28;19978;-83
2021/12/06 02:19:35;;;;;;;;;;;0.90;99.90;;;;;;5083950;28;19978;-84
2021/12/06 02:22:04;;;;;;;;;;;0.50;99.90;;;;;;5084336;28;20073;-84
2021/12/06 02:24:32;;;;;;;;;;;0.50;99.90;;;;;;5084338;28;19924;-84
2021/12/06 02:26:59;;;;;;;;;;;0.90;99.90;;;;;;5083551;28;19924;-85
2021/12/06 02:29:25;;;;;;;;;;;0.40;99.90;;;;;;5083498;28;20396;-84
2021/12/06 02:31:52;;;;;;;;;;;1.00;99.90;;;;;;5083761;28;19924;-84
2021/12/06 02:34:19;;;;;;;;;;;0.80;99.90;;;;;;5083922;28;19932;-85
2021/12/06 02:36:46;;;;;;;;;;;0.90;99.90;;;;;;5083320;28;19935;-85
2021/12/06 02:39:20;;;;;;;;;;;0.80;99.90;;;;;;5084077;28;20015;-84
2021/12/06 02:41:48;;;;;;;;;;;0.70;99.90;;;;;;5084499;28;20015;-84
2021/12/06 02:44:15;;;;;;;;;;;0.90;99.90;;;;;;5085568;28;19928;-85
2021/12/06 02:46:41;;;;;;;;;;;0.80;99.90;;;;;;5083190;28;20351;-84
2021/12/06 02:49:08;;;;;;;;;;;1.10;99.90;;;;;;5087078;28;19925;-84
2021/12/06 02:51:35;;;;;;;;;;;1.00;99.90;;;;;;5086153;28;19924;-85
2021/12/06 02:54:01;;;;;;;;;;;0.70;99.90;;;;;;5079650;28;19924;-85
2021/12/06 02:56:32;;;;;;;;;;;0.80;99.90;;;;;;5080712;28;19929;-83
2021/12/06 02:59:00;;;;;;;;;;;0.90;99.90;;;;;;5086979;28;19924;-84
2021/12/06 03:01:29;;;;;;;;;;;0.80;99.90;;;;;;5093894;28;19979;-85
2021/12/06 03:03:56;;;;;;;;;;;0.50;99.90;;;;;;5095761;28;19931;-84
2021/12/06 03:06:22;;;;;;;;;;;0.80;99.90;;;;;;5095793;28;19946;-84
2021/12/06 03:08:53;;;;;;;;;;;0.40;99.90;;;;;;5095913;28;19939;-84
2021/12/06 03:11:21;;;;;;;;;;;0.80;99.90;;;;;;5095976;28;19928;-84
2021/12/06 03:13:49;;;;;;;;;;;0.60;99.90;;;;;;5095583;28;19946;-84
2021/12/06 03:16:16;;;;;;;;;;;0.40;99.90;;;;;;5095783;28;19928;-84
2021/12/06 03:18:43;;;;;;;;;;;0.70;99.90;;;;;;5096173;28;19931;-84
2021/12/06 03:21:10;;;;;;;;;;;0.60;99.90;;;;;;5095966;28;19980;-85
2021/12/06 03:23:36;;;;;;;;;;;0.60;99.90;;;;;;5096516;28;19928;-84
2021/12/06 03:26:03;;;;;;;;;;;0.60;99.90;;;;;;5096716;28;19924;-84
2021/12/06 03:28:30;;;;;;;;;;;0.80;99.90;;;;;;5095359;28;19932;-85
2021/12/06 03:30:57;;;;;;;;;;;0.70;99.90;;;;;;5091814;28;19936;-83
2021/12/06 03:33:24;;;;;;;;;;;0.60;99.90;;;;;;5091383;28;19924;-84
2021/12/06 03:35:50;;;;;;;;;;;0.80;99.90;;;;;;5088498;28;19925;-84
2021/12/06 03:38:17;;;;;;;;;;;0.80;99.90;;;;;;5089283;28;19931;-84
2021/12/06 03:40:43;;;;;;;;;;;0.30;99.90;;;;;;5091498;28;19970;-84
2021/12/06 03:43:10;;;;;;;;;;;0.80;99.90;;;;;;5089750;28;19924;-84
2021/12/06 03:45:38;;;;;;;;;;;0.70;99.90;;;;;;5086167;28;22530;-84
2021/12/06 03:48:06;;;;;;;;;;;0.80;99.90;;;;;;5087410;28;19925;-83
2021/12/06 03:50:32;;;;;;;;;;;0.90;99.90;;;;;;5086901;28;19924;-84
2021/12/06 03:52:59;;;;;;;;;;;0.90;99.90;;;;;;5086732;28;19932;-84
2021/12/06 03:55:25;;;;;;;;;;;0.80;99.90;;;;;;5087324;28;19924;-85
2021/12/06 03:57:52;;;;;;;;;;;0.80;99.90;;;;;;5086440;28;19925;-84
2021/12/06 04:00:18;;;;;;;;;;;0.80;99.90;;;;;;5085683;28;19974;-84
2021/12/06 04:02:45;;;;;;;;;;;0.90;99.90;;;;;;5086907;28;19925;-84
2021/12/06 04:05:13;;;;;;;;;;;0.90;99.90;;;;;;5085920;28;19931;-84
2021/12/06 04:07:40;;;;;;;;;;;0.70;99.90;;;;;;5085624;28;19974;-84
2021/12/06 04:10:08;;;;;;;;;;;1.00;99.90;;;;;;5085426;28;19964;-84
2021/12/06 04:12:36;;;;;;;;;;;1.00;99.90;;;;;;5082153;28;20011;-84
2021/12/06 04:15:07;;;;;;;;;;;1.00;99.90;;;;;;5083884;28;19930;-85
2021/12/06 04:17:36;;;;;;;;;;;1.00;99.90;;;;;;5087851;28;19986;-83
2021/12/06 04:20:03;;;;;;;;;;;1.00;99.90;;;;;;5087924;28;19924;-85
2021/12/06 04:22:31;;;;;;;;;;;1.00;99.90;;;;;;5088243;28;19983;-84
2021/12/06 04:25:02;;;;;;;;;;;0.90;99.90;;;;;;5079327;28;20006;-83
2021/12/06 04:27:29;;;;;;;;;;;0.90;99.90;;;;;;5079535;28;19925;-84
2021/12/06 04:29:56;;;;;;;;;;;0.90;99.90;;;;;;5080657;28;19944;-84
2021/12/06 04:32:23;;;;;;;;;;;0.40;99.90;;;;;;5080533;28;19963;-85
2021/12/06 04:34:50;;;;;;;;;;;2.60;99.90;;;;;;5084534;28;19924;-85
2021/12/06 04:37:16;;;;;;;;;;;1.00;99.90;;;;;;5083971;28;19924;-84
2021/12/06 04:39:44;;;;;;;;;;;1.00;99.90;;;;;;5082563;28;19936;-85
2021/12/06 04:42:11;;;;;;;;;;;1.00;99.90;;;;;;5081519;28;20023;-85
2021/12/06 04:44:37;;;;;;;;;;;1.10;99.90;;;;;;5083255;28;19975;-85
2021/12/06 04:47:04;;;;;;;;;;;1.10;99.90;;;;;;5083446;28;19925;-85
2021/12/06 04:49:33;;;;;;;;;;;1.10;99.90;;;;;;5083186;28;19925;-84
2021/12/06 04:52:00;;;;;;;;;;;1.00;99.90;;;;;;5084074;28;19925;-85
2021/12/06 04:54:30;;;;;;;;;;;1.90;99.90;;;;;;5083593;28;19929;-85
2021/12/06 04:56:59;;;;;;;;;;;1.00;99.90;;;;;;5079460;28;20372;-84
2021/12/06 04:59:27;;;;;;;;;;;0.80;99.90;;;;;;5079329;28;19954;-84
2021/12/06 05:01:56;;;;;;;;;;;1.00;99.90;;;;;;5080392;28;20346;-84
2021/12/06 05:04:25;;;;;;;;;;;1.00;99.90;;;;;;5079250;28;19931;-85
2021/12/06 05:06:53;;;;;;;;;;;1.00;99.90;;;;;;5079170;28;19978;-84
2021/12/06 05:09:21;;;;;;;;;;;0.50;99.90;;;;;;5079827;28;19924;-84
2021/12/06 05:11:48;;;;;;;;;;;1.10;99.90;;;;;;5080206;28;19969;-84
2021/12/06 05:14:17;;;;;;;;;;;1.10;99.90;;;;;;5080518;28;19947;-84
2021/12/06 05:16:44;;;;;;;;;;;1.10;99.90;;;;;;5083208;28;19931;-85
2021/12/06 05:19:10;;;;;;;;;;;1.00;99.90;;;;;;5085394;28;19925;-84
2021/12/06 05:21:37;;;;;;;;;;;1.10;99.90;;;;;;5084602;28;19960;-83
2021/12/06 05:24:05;;;;;;;;;;;1.10;99.90;;;;;;5078538;28;19931;-84
2021/12/06 05:26:31;;;;;;;;;;;1.20;99.90;;;;;;5078254;28;19974;-83
2021/12/06 05:29:00;;;;;;;;;;;0.70;99.90;;;;;;5079863;28;20387;-83
2021/12/06 05:31:29;;;;;;;;;;;0.90;99.90;;;;;;5083452;28;19928;-83
2021/12/06 05:34:01;;;;;;;;;;;1.10;99.90;;;;;;5083216;28;19962;-84
2021/12/06 05:36:27;;;;;;;;;;;1.10;99.90;;;;;;5082551;28;19936;-84
2021/12/06 05:38:55;;;;;;;;;;;1.10;99.90;;;;;;5081997;28;19924;-83
2021/12/06 05:41:22;;;;;;;;;;;1.10;99.90;;;;;;5083605;28;19924;-83
2021/12/06 05:43:49;;;;;;;;;;;1.10;99.90;;;;;;5088503;28;20323;-83
2021/12/06 05:46:16;;;;;;;;;;;1.00;99.90;;;;;;5086152;28;19924;-83
2021/12/06 05:48:44;;;;;;;;;;;1.00;99.90;;;;;;5084856;28;20307;-83
2021/12/06 05:51:10;;;;;;;;;;;1.50;99.90;;;;;;5090188;28;20403;-83
2021/12/06 05:53:37;;;;;;;;;;;1.00;99.90;;;;;;5089907;28;19932;-83
2021/12/06 05:56:04;;;;;;;;;;;1.20;99.90;;;;;;5090207;28;19924;-84
2021/12/06 05:58:32;;;;;;;;;;;1.20;99.90;;;;;;5090415;28;19955;-84
2021/12/06 06:00:58;;;;;;;;;;;1.10;99.90;;;;;;5088625;28;19968;-83
2021/12/06 06:03:25;;;;;;;;;;;1.10;99.90;;;;;;5086681;28;19974;-83
2021/12/06 06:05:53;;;;;;;;;;;1.10;99.90;;;;;;5088362;28;19924;-83
2021/12/06 06:08:20;;;;;;;;;;;1.20;99.90;;;;;;5089688;28;19928;-84
2021/12/06 06:10:47;;;;;;;;;;;1.00;99.90;;;;;;5088120;28;19924;-84
2021/12/06 06:13:14;;;;;;;;;;;1.20;99.90;;;;;;5087693;28;20485;-84
2021/12/06 06:15:40;;;;;;;;;;;1.20;99.90;;;;;;5086452;28;19928;-85
2021/12/06 06:18:07;;;;;;;;;;;1.20;99.90;;;;;;5082822;28;19978;-84
2021/12/06 06:20:35;;;;;;;;;;;0.90;99.90;;;;;;5078636;28;19990;-84
2021/12/06 06:23:03;;;;;;;;;;;1.20;99.90;;;;;;5077904;28;19972;-84
2021/12/06 06:25:30;;;;;;;;;;;1.30;99.90;;;;;;5081232;28;19925;-84
2021/12/06 06:27:57;;;;;;;;;;;1.30;99.90;;;;;;5081366;28;19924;-84
2021/12/06 06:30:24;;;;;;;;;;;1.20;99.90;;;;;;5082031;28;19924;-84
2021/12/06 06:32:51;;;;;;;;;;;1.10;99.90;;;;;;5081378;28;19924;-84
2021/12/06 06:35:18;;;;;;;;;;;1.30;99.90;;;;;;5081941;28;19924;-84
2021/12/06 06:37:45;;;;;;;;;;;1.30;99.90;;;;;;5084098;28;19968;-84
2021/12/06 06:40:13;;;;;;;;;;;1.30;99.90;;;;;;5093501;28;19924;-83
2021/12/06 06:42:40;;;;;;;;;;;1.30;99.90;;;;;;5086954;28;19929;-84
2021/12/06 06:45:07;;;;;;;;;;;1.20;99.90;;;;;;5083320;28;19925;-84
2021/12/06 06:47:34;;;;;;;;;;;1.20;99.90;;;;;;5104390;22;19931;-84
2021/12/06 06:50:00;;;;;;;;;;;1.00;99.90;;;;;;5094336;28;19951;-84
2021/12/06 06:52:27;;;;;;;;;;;1.30;99.90;;;;;;5088870;28;19978;-84
2021/12/06 06:54:55;;;;;;;;;;;1.20;99.90;;;;;;5088813;28;19944;-84
2021/12/06 06:57:22;;;;;;;;;;;1.20;99.90;;;;;;5087956;28;19972;-85
2021/12/06 06:59:49;;;;;;;;;;;2.50;99.90;;;;;;5087883;28;19932;-84
2021/12/06 07:02:16;;;;;;;;;;;1.20;99.90;;;;;;5088707;28;19954;-84
2021/12/06 07:04:42;;;;;;;;;;;1.10;99.90;;;;;;5089215;28;19959;-85
2021/12/06 07:07:09;;;;;;;;;;;1.10;99.90;;;;;;5098210;28;19939;-83
2021/12/06 07:09:36;;;;;;;;;;;1.10;99.90;;;;;;5100744;28;20329;-84
2021/12/06 07:12:03;;;;;;;;;;;1.00;99.90;;;;;;5100592;28;19946;-85
2021/12/06 07:14:31;;;;;;;;;;;1.20;99.90;;;;;;5099579;28;19928;-84
2021/12/06 07:16:57;;;;;;;;;;;1.10;99.90;;;;;;5090429;28;19924;-85
2021/12/06 07:19:24;;;;;;;;;;;0.60;99.90;;;;;;5089646;28;19931;-85
2021/12/06 07:21:50;;;;;;;;;;;1.10;99.90;;;;;;5088835;28;19978;-85
2021/12/06 07:24:17;;;;;;;;;;;1.10;99.90;;;;;;5080973;28;19925;-79
2021/12/06 07:26:43;;;;;;;;;;;1.10;99.90;;;;;;5079520;28;19970;-79
2021/12/06 07:29:10;;;;;;;;;;;1.10;99.90;;;;;;5080441;28;20022;-78
2021/12/06 07:31:37;;;;;;;;;;;1.10;99.90;;;;;;5083705;28;19930;-80
2021/12/06 07:34:04;;;;;;;;;;;1.00;99.90;;;;;;5080437;28;20322;-80
2021/12/06 07:36:31;;;;;;;;;;;1.30;99.90;;;;;;5087382;28;19924;-84
2021/12/06 07:38:57;;;;;;;;;;;1.40;99.90;;;;;;5090922;28;19947;-85
2021/12/06 07:41:28;;;;;;;;;;;1.40;99.90;;;;;;5091418;28;19924;-86
2021/12/06 07:43:55;;;;;;;;;;;1.30;99.90;;;;;;5092945;28;19964;-86
2021/12/06 07:46:21;;;;;;;;;;;1.30;99.90;;;;;;5092799;28;19951;-85
2021/12/06 07:48:52;;;;;;;;;;;1.40;99.90;;;;;;5094004;28;20011;-85
2021/12/06 07:51:19;;;;;;;;;;;1.40;99.90;;;;;;5091573;28;19924;-84
2021/12/06 07:53:45;;;;;;;;;;;1.50;99.90;;;;;;5092589;28;19924;-85
2021/12/06 07:56:12;;;;;;;;;;;1.70;99.90;;;;;;5094399;28;19932;-85
2021/12/06 07:58:43;;;;;;;;;;;1.70;99.90;;;;;;5082803;28;20017;-82
2021/12/06 08:01:12;;;;;;;;;;;1.70;99.90;;;;;;5083688;28;19931;-82
2021/12/06 08:03:46;;;;;;;;;;;1.80;99.90;;;;;;5081569;28;20019;-81
2021/12/06 08:06:22;;;;;;;;;;;1.80;99.90;;;;;;5081843;28;19935;-80
2021/12/06 08:08:49;;;;;;;;;;;1.80;99.90;;;;;;5090199;28;19931;-85
2021/12/06 08:11:19;;;;;;;;;;;1.80;99.90;;;;;;5092542;28;19924;-84
2021/12/06 08:13:46;;;;;;;;;;;1.80;99.90;;;;;;5091343;28;19932;-85
2021/12/06 08:16:14;;;;;;;;;;;1.90;99.90;;;;;;5089954;28;19931;-86
2021/12/06 08:18:41;;;;;;;;;;;1.90;99.90;;;;;;5091206;28;19948;-86
2021/12/06 08:21:07;;;;;;;;;;;2.00;99.90;;;;;;5095017;28;19939;-85
2021/12/06 08:23:35;;;;;;;;;;;1.80;99.90;;;;;;5098927;28;19912;-84
2021/12/06 08:26:03;;;;;;;;;;;1.80;99.90;;;;;;5097836;28;19934;-86
2021/12/06 08:28:31;;;;;;;;;;;1.80;99.90;;;;;;5092054;28;19987;-85
2021/12/06 08:30:58;;;;;;;;;;;1.90;99.90;;;;;;5092651;28;19947;-86
2021/12/06 08:33:25;;;;;;;;;;;1.90;99.90;;;;;;5091218;28;19924;-86
2021/12/06 08:35:53;;;;;;;;;;;2.00;99.90;;;;;;5092024;28;19925;-86
2021/12/06 08:38:20;;;;;;;;;;;2.00;99.90;;;;;;5091300;28;19963;-85
2021/12/06 08:40:49;;;;;;;;;;;2.10;99.90;;;;;;5089520;28;19924;-86
2021/12/06 08:43:17;;;;;;;;;;;2.10;99.90;;;;;;5087998;28;19925;-85
2021/12/06 08:45:44;;;;;;;;;;;2.10;99.90;;;;;;5089024;28;20405;-87
2021/12/06 08:48:11;;;;;;;;;;;2.10;99.90;;;;;;5088769;28;19925;-85
2021/12/06 08:50:38;;;;;;;;;;;2.10;99.90;;;;;;5088119;28;19924;-86
2021/12/06 08:53:04;;;;;;;;;;;2.10;99.90;;;;;;5087710;28;19932;-86
2021/12/06 08:55:31;;;;;;;;;;;2.20;99.90;;;;;;5087394;28;19980;-86
2021/12/06 08:57:59;;;;;;;;;;;2.20;99.90;;;;;;5094576;28;19925;-87
2021/12/06 09:00:27;;;;;;;;;;;2.20;99.90;;;;;;5095721;28;19924;-86
2021/12/06 09:02:54;;;;;;;;;;;2.20;99.90;;;;;;5089253;28;20213;-85
2021/12/06 09:05:20;;;;;;;;;;;2.10;99.90;;;;;;5089609;28;20379;-85
2021/12/06 09:07:48;;;;;;;;;;;2.30;99.90;;;;;;5084445;28;19951;-85
2021/12/06 09:10:15;;;;;;;;;;;2.30;99.90;;;;;;5086600;28;19925;-84
2021/12/06 09:12:41;;;;;;;;;;;2.30;99.90;;;;;;5087602;28;19924;-85
2021/12/06 09:15:12;;;;;;;;;;;2.20;99.90;;;;;;5087919;28;19924;-85
2021/12/06 09:17:39;;;;;;;;;;;2.40;99.90;;;;;;5088000;28;19917;-86
2021/12/06 09:20:07;;;;;;;;;;;2.80;99.90;;;;;;5089844;28;19988;-85
2021/12/06 09:22:33;;;;;;;;;;;2.50;99.90;;;;;;5093730;28;19925;-86
2021/12/06 09:25:03;;;;;;;;;;;2.40;99.90;;;;;;5096255;28;19927;-84
2021/12/06 09:27:29;;;;;;;;;;;2.40;99.90;;;;;;5091091;28;19986;-81
2021/12/06 09:29:57;;;;;;;;;;;2.40;99.90;;;;;;5093061;28;20318;-81
2021/12/06 09:32:26;;;;;;;;;;;2.40;99.90;;;;;;5096290;28;19928;-80
2021/12/06 09:34:57;;;;;;;;;;;2.40;99.90;;;;;;5098886;28;19912;-82
2021/12/06 09:37:24;;;;;;;;;;;2.50;99.90;;;;;;5095520;28;19932;-81
2021/12/06 09:39:50;;;;;;;;;;;3.10;99.90;;;;;;5093083;28;19912;-81
2021/12/06 09:42:19;;;;;;;;;;;2.50;99.90;;;;;;5097979;28;19925;-82
2021/12/06 09:44:45;;;;;;;;;;;2.50;99.90;;;;;;5096593;28;19951;-81
2021/12/06 09:47:12;;;;;;;;;;;2.50;99.90;;;;;;5090095;28;19936;-83
2021/12/06 09:49:40;;;;;;;;;;;2.40;99.90;;;;;;5087802;28;20295;-82
2021/12/06 09:52:08;;;;;;;;;;;2.40;99.90;;;;;;5091284;28;19925;-83
2021/12/06 09:54:36;;;;;;;;;;;2.40;99.90;;;;;;5091901;28;19946;-82
2021/12/06 09:57:04;;;;;;;;;;;2.40;99.90;;;;;;5093409;28;19963;-83
2021/12/06 09:59:31;;;;;;;;;;;2.40;99.90;;;;;;5092240;28;19924;-83
2021/12/06 10:01:59;;;;;;;;;;;2.30;99.90;;;;;;5092748;28;19925;-83
2021/12/06 10:04:27;;;;;;;;;;;2.40;99.90;;;;;;5092608;28;19924;-83
2021/12/06 10:06:56;;;;;;;;;;;2.30;99.90;;;;;;5092306;28;19925;-82
2021/12/06 10:09:23;;;;;;;;;;;2.00;99.90;;;;;;5092576;28;19928;-82
2021/12/06 10:11:51;;;;;;;;;;;2.20;99.90;;;;;;5091387;28;19934;-83
2021/12/06 10:14:18;;;;;;;;;;;2.40;99.90;;;;;;5088346;28;19924;-84
2021/12/06 10:16:45;;;;;;;;;;;2.40;99.90;;;;;;5090969;28;19924;-82
2021/12/06 10:19:12;;;;;;;;;;;2.40;99.90;;;;;;5090937;28;19928;-82
2021/12/06 10:21:39;;;;;;;;;;;2.40;99.90;;;;;;5092342;28;19924;-84
2021/12/06 10:24:13;;;;;;;;;;;2.40;99.90;;;;;;5090713;28;19924;-82
2021/12/06 10:26:40;;;;;;;;;;;2.30;99.90;;;;;;5089980;28;20370;-84
2021/12/06 10:29:08;;;;;;;;;;;1.40;99.90;;;;;;5088491;28;20379;-83
2021/12/06 10:31:38;;;;;;;;;;;2.40;99.90;;;;;;5089724;28;19925;-85
2021/12/06 10:34:05;;;;;;;;;;;1.40;99.90;;;;;;5091900;28;19925;-83
2021/12/06 10:36:33;;;;;;;;;;;2.60;99.90;;;;;;5092556;28;19924;-83
2021/12/06 10:39:01;;;;;;;;;;;2.50;99.90;;;;;;5094388;28;19924;-84
2021/12/06 10:41:32;;;;;;;;;;;2.40;99.90;;;;;;5093495;28;19913;-85
2021/12/06 10:44:00;;;;;;;;;;;2.40;99.90;;;;;;5092232;28;19932;-83
2021/12/06 10:46:28;;;;;;;;;;;2.50;99.90;;;;;;5090001;28;20271;-85
2021/12/06 10:48:56;;;;;;;;;;;2.50;99.90;;;;;;5090621;28;19950;-82
2021/12/06 10:51:23;;;;;;;;;;;2.60;99.90;;;;;;5091042;28;19950;-83
2021/12/06 10:53:58;;;;;;;;;;;2.60;99.90;;;;;;5091229;28;19931;-84
2021/12/06 10:56:33;;;;;;;;;;;2.60;99.90;;;;;;5091005;28;20351;-83
2021/12/06 10:59:03;;;;;;;;;;;2.50;99.90;;;;;;5091122;28;19934;-84
2021/12/06 11:01:31;;;;;;;;;;;1.80;99.90;;;;;;5091024;28;19947;-83
2021/12/06 11:03:59;;;;;;;;;;;2.00;99.90;;;;;;5091315;28;19924;-83
2021/12/06 11:06:29;;;;;;;;;;;2.60;99.90;;;;;;5091280;28;19946;-83
2021/12/06 11:08:57;;;;;;;;;;;2.50;99.90;;;;;;5090018;28;20489;-84
2021/12/06 11:11:27;;;;;;;;;;;2.60;99.90;;;;;;5090837;28;19924;-85
2021/12/06 11:13:55;;;;;;;;;;;2.30;99.90;;;;;;5094877;28;19947;-85
2021/12/06 11:16:24;;;;;;;;;;;2.70;99.90;;;;;;5093008;28;19950;-83
2021/12/06 11:18:53;;;;;;;;;;;2.70;99.90;;;;;;5093985;28;19925;-84
2021/12/06 11:21:22;;;;;;;;;;;2.60;99.90;;;;;;5097468;28;19938;-81
2021/12/06 11:24:06;;;;;;;;;;;2.60;99.90;;;;;;5095669;28;19987;-84
2021/12/06 11:26:33;;;;;;;;;;;2.70;99.90;;;;;;5094765;28;19929;-87
2021/12/06 11:29:05;;;;;;;;;;;2.70;99.90;;;;;;5095631;28;19924;-84
2021/12/06 11:31:33;;;;;;;;;;;2.70;99.90;;;;;;5096378;28;19931;-85
2021/12/06 11:34:00;;;;;;;;;;;2.70;99.90;;;;;;5097571;28;19947;-85
2021/12/06 11:36:27;;;;;;;;;;;2.80;99.90;;;;;;5097740;28;19924;-85
2021/12/06 11:38:58;;;;;;;;;;;2.80;99.90;;;;;;5094716;28;19925;-84
2021/12/06 11:41:24;;;;;;;;;;;2.80;99.90;;;;;;5097720;28;19924;-84
2021/12/06 11:43:51;;;;;;;;;;;2.80;99.90;;;;;;5098088;28;19924;-83
2021/12/06 11:46:26;;;;;;;;;;;2.80;99.90;;;;;;5098339;28;19924;-85
2021/12/06 11:48:54;;;;;;;;;;;2.80;99.90;;;;;;5096733;28;20367;-84
2021/12/06 11:51:21;;;;;;;;;;;2.50;99.90;;;;;;5093723;28;19925;-86
2021/12/06 11:53:49;;;;;;;;;;;2.60;99.90;;;;;;5094209;28;19924;-83
2021/12/06 11:56:18;;;;;;;;;;;2.70;99.90;;;;;;5095209;28;19931;-85
2021/12/06 11:58:46;;;;;;;;;;;2.60;99.90;;;;;;5095920;28;19924;-85
2021/12/06 12:01:15;;;;;;;;;;;2.50;99.90;;;;;;5095590;28;19924;-84
2021/12/06 12:03:42;;;;;;;;;;;2.70;99.90;;;;;;5095349;28;19924;-84
2021/12/06 12:06:22;;;;;;;;;;;2.80;99.90;;;;;;5095933;28;19924;-84
2021/12/06 12:08:49;;;;;;;;;;;2.80;99.90;;;;;;5096468;28;19924;-85
2021/12/06 12:11:16;;;;;;;;;;;3.00;99.90;;;;;;5096394;28;19925;-86
2021/12/06 12:13:43;;;;;;;;;;;2.90;99.90;;;;;;5096941;28;19938;-83
2021/12/06 12:16:12;;;;;;;;;;;2.90;99.90;;;;;;5097377;28;19925;-84
2021/12/06 12:18:40;;;;;;;;;;;2.90;99.90;;;;;;5096772;28;19925;-88
2021/12/06 12:21:07;;;;;;;;;;;2.80;99.90;;;;;;5097387;28;19931;-83
2021/12/06 12:23:35;;;;;;;;;;;2.80;99.90;;;;;;5097567;28;19925;-85
2021/12/06 12:26:05;;;;;;;;;;;2.80;99.90;;;;;;5096147;28;19947;-85
2021/12/06 12:28:36;;;;;;;;;;;2.80;99.90;;;;;;5096087;28;19954;-84
2021/12/06 12:31:04;;;;;;;;;;;2.80;99.90;;;;;;5097038;28;19939;-85
2021/12/06 12:33:30;;;;;;;;;;;2.80;99.90;;;;;;5089158;28;19924;-84
2021/12/06 12:35:59;;;;;;;;;;;2.80;99.90;;;;;;5094559;28;19951;-83
2021/12/06 12:38:27;;;;;;;;;;;2.70;99.90;;;;;;5096027;28;19928;-85
2021/12/06 12:40:56;;;;;;;;;;;2.70;99.90;;;;;;5095970;28;19912;-86
2021/12/06 12:43:23;;;;;;;;;;;2.70;99.90;;;;;;5095555;28;19940;-85
2021/12/06 12:45:51;;;;;;;;;;;2.70;99.90;;;;;;5094220;28;19963;-86
2021/12/06 12:48:22;;;;;;;;;;;2.70;99.90;;;;;;5120438;22;19924;-83
2021/12/06 12:51:01;;;;;;;;;;;1.70;99.90;;;;;;5090281;28;19932;-83
2021/12/06 12:53:27;;;;;;;;;;;2.80;99.90;;;;;;5088746;28;19932;-83
2021/12/06 12:55:55;;;;;;;;;;;2.60;99.90;;;;;;5089549;28;19924;-82
2021/12/06 12:58:23;;;;;;;;;;;2.70;99.90;;;;;;5090972;28;19912;-82
2021/12/06 13:00:52;;;;;;;;;;;2.30;99.90;;;;;;5096432;28;20283;-83
2021/12/06 13:03:32;;;;;;;;;;;2.70;99.90;;;;;;5083630;28;19924;-83
2021/12/06 13:06:19;;;;;;;;;;;2.60;99.90;;;;;;5093194;28;19988;-82
2021/12/06 13:08:45;;;;;;;;;;;2.60;99.90;;;;;;5093756;28;19924;-83
2021/12/06 13:11:14;;;;;;;;;;;2.70;99.90;;;;;;5093598;28;19924;-82
2021/12/06 13:13:45;;;;;;;;;;;2.60;99.90;;;;;;5095375;28;19928;-84
2021/12/06 13:16:58;;;;;;;;;;;2.70;99.90;;;;;;5089974;28;19989;-84
2021/12/06 13:19:35;;;;;;;;;;;2.80;99.90;;;;;;5092300;28;19923;-84
2021/12/06 13:22:10;;;;;;;;;;;2.90;99.90;;;;;;5092940;28;19925;-84
2021/12/06 13:24:44;;;;;;;;;;;2.80;99.90;;;;;;5091358;28;19943;-83
2021/12/06 13:27:37;;;;;;;;;;;2.90;99.90;;;;;;5088960;28;19928;-83
2021/12/06 13:30:37;;;;;;;;;;;2.80;99.90;;;;;;5025232;28;19945;-90
2021/12/06 13:33:06;;;;;;;;;;;2.80;99.90;;;;;;4986308;28;20009;-85
2021/12/06 13:35:34;;;;;;;;;;;2.80;99.90;;;;;;5092534;28;20268;-84
2021/12/06 13:38:05;;;;;;;;;;;2.80;99.90;;;;;;5092459;28;19943;-84
2021/12/06 13:40:33;;;;;;;;;;;2.80;99.90;;;;;;5093927;28;19974;-85
2021/12/06 13:43:05;;;;;;;;;;;2.80;99.90;;;;;;5094566;28;19925;-84
2021/12/06 13:45:37;;;;;;;;;;;2.80;99.90;;;;;;5096980;28;19925;-84
2021/12/06 13:48:10;;;;;;;;;;;2.80;99.90;;;;;;5097769;28;19970;-84
2021/12/06 13:50:36;;;;;;;;;;;2.70;99.90;;;;;;5095413;28;19920;-85
2021/12/06 13:53:04;;;;;;;;;;;2.70;99.90;;;;;;5094151;28;19932;-85
2021/12/06 13:55:32;;;;;;;;;;;2.50;99.90;;;;;;5096784;28;19963;-83
2021/12/06 13:58:00;;;;;;;;;;;2.50;99.90;;;;;;5095930;28;19971;-85
2021/12/06 14:00:28;;;;;;;;;;;2.60;99.90;;;;;;5096031;28;19931;-85
2021/12/06 14:02:56;;;;;;;;;;;2.50;99.90;;;;;;5096379;28;19923;-83
2021/12/06 14:05:27;;;;;;;;;;;2.50;99.90;;;;;;5093126;28;19928;-83
2021/12/06 14:07:54;;;;;;;;;;;2.60;99.90;;;;;;5092931;28;19925;-83
2021/12/06 14:10:20;;;;;;;;;;;2.60;99.90;;;;;;5098070;28;19912;-85
2021/12/06 14:12:47;;;;;;;;;;;2.50;99.90;;;;;;5097910;28;19924;-84
2021/12/06 14:15:18;;;;;;;;;;;2.50;99.90;;;;;;5097818;28;19927;-84
2021/12/06 14:17:45;;;;;;;;;;;2.50;99.90;;;;;;5098153;28;19908;-85
2021/12/06 14:20:12;;;;;;;;;;;2.50;99.90;;;;;;5098106;28;19924;-84
2021/12/06 14:22:39;;;;;;;;;;;2.50;99.90;;;;;;5098529;28;19930;-84
2021/12/06 14:25:07;;;;;;;;;;;2.40;99.90;;;;;;5096685;28;19912;-85
2021/12/06 14:27:36;;;;;;;;;;;2.60;99.90;;;;;;5094435;28;19924;-84
2021/12/06 14:30:04;;;;;;;;;;;2.60;99.90;;;;;;5093348;28;19928;-86
2021/12/06 14:32:30;;;;;;;;;;;2.60;99.90;;;;;;5092401;28;19925;-84
2021/12/06 14:34:57;;;;;;;;;;;2.60;99.90;;;;;;5091008;28;19924;-84
2021/12/06 14:37:24;;;;;;;;;;;2.60;99.90;;;;;;5092296;28;19955;-84
2021/12/06 14:39:56;;;;;;;;;;;2.60;99.90;;;;;;5091583;28;19947;-84
2021/12/06 14:42:23;;;;;;;;;;;2.60;99.90;;;;;;5091465;28;19938;-85